Time;durP1;ratioP1;P1;durP2;ratioP2;P2;SDS_P1;SDS_P2;PMS_P1;PMS_P2;Temp;Humidity;BMP_temperature;BMP_pressure;BME280_temperature;BME280_humidity;BME280_pressure;Samples;Min_cycle;Max_cycle;Signal;HPM_P1;HPM_P2
2022/05/17 00:00:42;;;;;;;4.85;3.70;;;;;;;;;;5039982;28;20460;-71
2022/05/17 00:03:08;;;;;;;7.72;3.72;;;;;;;;;;5039094;28;20020;-71
2022/05/17 00:05:33;;;;;;;5.93;3.40;;;;;;;;;;5036038;28;20515;-74
2022/05/17 00:07:59;;;;;;;4.30;3.67;;;;;;;;;;5041884;28;20413;-74
2022/05/17 00:10:25;;;;;;;4.43;3.25;;;;;;;;;;5037239;28;20033;-72
2022/05/17 00:12:51;;;;;;;4.93;3.75;;;;;;;;;;5029985;28;20052;-71
2022/05/17 00:15:17;;;;;;;4.82;3.00;;;;;;;;;;5027140;28;20048;-72
2022/05/17 00:17:43;;;;;;;4.03;3.70;;;;;;;;;;5045575;28;20840;-73
2022/05/17 00:20:08;;;;;;;5.30;3.67;;;;;;;;;;5033806;28;20024;-71
2022/05/17 00:22:34;;;;;;;6.35;3.65;;;;;;;;;;5041770;28;20078;-71
2022/05/17 00:25:00;;;;;;;6.25;4.03;;;;;;;;;;5033601;28;20035;-79
2022/05/17 00:27:25;;;;;;;7.93;3.70;;;;;;;;;;5038118;28;20650;-76
2022/05/17 00:29:51;;;;;;;4.60;3.95;;;;;;;;;;5038643;28;20032;-72
2022/05/17 00:32:16;;;;;;;5.57;3.95;;;;;;;;;;5040639;28;20102;-72
2022/05/17 00:34:41;;;;;;;5.53;3.38;;;;;;;;;;5036126;28;20039;-73
2022/05/17 00:37:08;;;;;;;4.90;3.75;;;;;;;;;;5035989;28;20134;-73
2022/05/17 00:39:33;;;;;;;5.55;3.47;;;;;;;;;;5041991;28;20033;-70
2022/05/17 00:41:59;;;;;;;10.48;3.97;;;;;;;;;;5042173;28;20029;-72
2022/05/17 00:44:42;;;;;;;5.82;3.67;;;;;;;;;;5040828;28;20101;-69
2022/05/17 00:47:08;;;;;;;4.45;3.58;;;;;;;;;;5041940;28;20116;-69
2022/05/17 00:49:51;;;;;;;10.07;3.55;;;;;;;;;;5039202;28;20112;-70
2022/05/17 00:52:21;;;;;;;5.13;3.40;;;;;;;;;;5036945;28;20415;-70
2022/05/17 00:54:47;;;;;;;7.05;3.50;;;;;;;;;;5032474;28;20056;-75
2022/05/17 00:57:19;;;;;;;6.75;3.13;;;;;;;;;;5055277;28;20036;-70
2022/05/17 00:59:44;;;;;;;3.25;2.78;;;;;;;;;;5038849;28;20027;-71
2022/05/17 01:02:10;;;;;;;4.75;2.40;;;;;;;;;;5039785;28;20033;-70
2022/05/17 01:04:36;;;;;;;2.60;2.40;;;;;;;;;;5039969;28;20369;-70
2022/05/17 01:07:13;;;;;;;3.33;2.40;;;;;;;;;;5040241;28;20044;-69
2022/05/17 01:09:38;;;;;;;2.70;1.98;;;;;;;;;;5030752;28;20036;-71
2022/05/17 01:12:03;;;;;;;3.08;1.67;;;;;;;;;;5041537;28;20050;-70
2022/05/17 01:17:13;;;;;;;1.85;1.50;;;;;;;;;;5040439;28;20035;-73
2022/05/17 01:19:39;;;;;;;1.65;1.52;;;;;;;;;;5038868;28;20037;-71
2022/05/17 01:22:05;;;;;;;1.20;1.10;;;;;;;;;;5039867;28;20027;-72
2022/05/17 01:24:31;;;;;;;1.80;1.48;;;;;;;;;;5040815;28;20025;-72
2022/05/17 01:27:00;;;;;;;2.55;1.50;;;;;;;;;;5038921;28;20094;-71
2022/05/17 01:29:25;;;;;;;9.95;1.50;;;;;;;;;;5036732;28;20037;-73
2022/05/17 01:31:51;;;;;;;1.50;1.40;;;;;;;;;;5041851;28;20082;-76
2022/05/17 01:34:16;;;;;;;1.75;1.60;;;;;;;;;;5034267;28;20408;-71
2022/05/17 01:36:42;;;;;;;1.63;1.52;;;;;;;;;;5032117;28;20086;-71
2022/05/17 01:39:08;;;;;;;2.03;1.73;;;;;;;;;;5038389;28;20069;-74
2022/05/17 01:41:33;;;;;;;1.45;1.35;;;;;;;;;;5040522;28;20112;-69
2022/05/17 01:43:59;;;;;;;1.70;1.48;;;;;;;;;;5039631;28;20347;-74
2022/05/17 01:46:24;;;;;;;1.67;1.20;;;;;;;;;;5040500;28;20032;-70
2022/05/17 01:48:51;;;;;;;1.48;1.38;;;;;;;;;;5040393;28;20127;-71
2022/05/17 01:51:17;;;;;;;1.45;1.35;;;;;;;;;;5038423;28;20029;-71
2022/05/17 01:53:43;;;;;;;2.28;1.42;;;;;;;;;;5040908;28;20421;-71
2022/05/17 01:56:09;;;;;;;1.85;1.30;;;;;;;;;;5039706;28;20056;-70
2022/05/17 01:58:34;;;;;;;1.50;1.40;;;;;;;;;;5038115;28;20036;-76
2022/05/17 02:00:59;;;;;;;1.48;1.38;;;;;;;;;;5038959;28;20045;-70
2022/05/17 02:03:25;;;;;;;1.27;1.17;;;;;;;;;;5038901;28;20942;-71
2022/05/17 02:05:50;;;;;;;1.77;1.23;;;;;;;;;;5029296;28;20441;-70
2022/05/17 02:08:16;;;;;;;2.38;1.60;;;;;;;;;;5038083;28;20770;-72
2022/05/17 02:10:43;;;;;;;1.60;1.50;;;;;;;;;;5038566;28;20375;-75
2022/05/17 02:13:08;;;;;;;1.73;1.50;;;;;;;;;;5039104;28;20116;-71
2022/05/17 02:15:34;;;;;;;1.60;1.50;;;;;;;;;;5039796;28;20112;-71
2022/05/17 02:17:59;;;;;;;1.65;1.50;;;;;;;;;;5035430;28;21290;-75
2022/05/17 02:20:24;;;;;;;1.50;1.02;;;;;;;;;;5029343;28;20104;-70
2022/05/17 02:22:50;;;;;;;1.63;1.50;;;;;;;;;;5026714;28;20027;-71
2022/05/17 02:25:16;;;;;;;1.83;1.48;;;;;;;;;;5026756;28;20124;-71
2022/05/17 02:27:41;;;;;;;3.03;1.73;;;;;;;;;;5028888;28;20116;-69
2022/05/17 02:30:08;;;;;;;1.50;1.40;;;;;;;;;;5038323;28;20033;-71
2022/05/17 02:32:34;;;;;;;2.60;1.50;;;;;;;;;;5039700;28;20036;-71
2022/05/17 02:34:59;;;;;;;3.47;1.80;;;;;;;;;;5038702;28;20225;-74
2022/05/17 02:37:25;;;;;;;1.80;1.60;;;;;;;;;;5030350;28;20119;-70
2022/05/17 02:39:50;;;;;;;2.50;1.80;;;;;;;;;;5035734;28;20021;-70
2022/05/17 02:42:15;;;;;;;2.33;1.73;;;;;;;;;;5038455;28;20037;-70
2022/05/17 02:44:41;;;;;;;2.40;1.77;;;;;;;;;;5038728;28;20025;-70
2022/05/17 02:47:06;;;;;;;2.22;2.03;;;;;;;;;;5037818;28;20111;-70
2022/05/17 02:49:32;;;;;;;2.08;1.50;;;;;;;;;;5037681;28;20021;-75
2022/05/17 02:52:03;;;;;;;1.52;1.30;;;;;;;;;;5038223;28;20348;-71
2022/05/17 02:54:28;;;;;;;1.67;1.38;;;;;;;;;;5037682;28;20025;-69
2022/05/17 02:56:54;;;;;;;2.17;1.48;;;;;;;;;;5037953;28;20746;-76
2022/05/17 02:59:20;;;;;;;1.70;1.60;;;;;;;;;;5028895;28;20024;-71
2022/05/17 03:01:46;;;;;;;1.55;1.45;;;;;;;;;;5037680;28;20053;-71
2022/05/17 03:04:14;;;;;;;2.33;1.70;;;;;;;;;;5035605;28;20048;-69
2022/05/17 03:06:40;;;;;;;1.88;1.77;;;;;;;;;;5030619;28;20025;-70
2022/05/17 03:09:05;;;;;;;1.73;1.63;;;;;;;;;;5029457;28;20029;-70
2022/05/17 03:11:31;;;;;;;1.60;1.50;;;;;;;;;;5035011;28;20037;-69
2022/05/17 03:13:56;;;;;;;1.70;1.60;;;;;;;;;;5028339;28;20028;-70
2022/05/17 03:16:27;;;;;;;3.00;1.70;;;;;;;;;;5035278;28;20349;-72
2022/05/17 03:18:52;;;;;;;1.67;1.58;;;;;;;;;;5028853;28;20030;-71
2022/05/17 03:21:17;;;;;;;2.40;2.05;;;;;;;;;;5036038;28;20036;-69
2022/05/17 03:23:43;;;;;;;2.08;1.98;;;;;;;;;;5033114;28;20360;-70
2022/05/17 03:26:08;;;;;;;2.30;1.80;;;;;;;;;;5034152;28;20045;-69
2022/05/17 03:28:34;;;;;;;2.47;2.28;;;;;;;;;;5038589;28;20024;-77
2022/05/17 03:30:59;;;;;;;3.40;2.45;;;;;;;;;;5029450;28;20254;-75
2022/05/17 03:33:24;;;;;;;2.30;2.10;;;;;;;;;;5037517;28;20029;-74
2022/05/17 03:35:49;;;;;;;3.05;2.30;;;;;;;;;;5037826;28;20029;-71
2022/05/17 03:38:15;;;;;;;2.28;2.08;;;;;;;;;;5028042;28;20032;-79
2022/05/17 03:40:41;;;;;;;2.42;2.03;;;;;;;;;;5036608;28;20058;-71
2022/05/17 03:43:06;;;;;;;3.20;2.20;;;;;;;;;;5028637;28;20363;-71
2022/05/17 03:45:32;;;;;;;1.85;1.70;;;;;;;;;;5037107;28;20036;-71
2022/05/17 03:47:57;;;;;;;1.80;1.70;;;;;;;;;;5028531;28;20399;-70
2022/05/17 03:50:22;;;;;;;1.50;1.40;;;;;;;;;;5037301;28;20523;-69
2022/05/17 03:52:48;;;;;;;1.92;1.27;;;;;;;;;;5037033;28;20017;-71
2022/05/17 03:55:13;;;;;;;1.67;1.55;;;;;;;;;;5037137;28;20448;-79
2022/05/17 03:57:38;;;;;;;2.17;1.67;;;;;;;;;;5038483;28;20061;-73
2022/05/17 04:00:06;;;;;;;1.67;1.58;;;;;;;;;;5039016;28;20044;-70
2022/05/17 04:02:32;;;;;;;2.67;1.60;;;;;;;;;;5037235;28;20033;-75
2022/05/17 04:04:57;;;;;;;1.92;1.70;;;;;;;;;;5028392;28;20033;-71
2022/05/17 04:07:23;;;;;;;2.00;1.80;;;;;;;;;;5036027;28;20040;-70
2022/05/17 04:09:48;;;;;;;2.42;2.10;;;;;;;;;;5038201;28;20033;-74
2022/05/17 04:12:14;;;;;;;2.42;2.20;;;;;;;;;;5030336;28;20028;-74
2022/05/17 04:14:39;;;;;;;3.35;2.50;;;;;;;;;;5024190;28;20123;-72
2022/05/17 04:17:05;;;;;;;2.55;2.15;;;;;;;;;;5024424;28;20017;-73
2022/05/17 04:19:30;;;;;;;1.98;1.85;;;;;;;;;;5024024;28;20060;-71
2022/05/17 04:21:58;;;;;;;2.30;1.92;;;;;;;;;;5024212;28;20036;-74
2022/05/17 04:24:23;;;;;;;1.92;1.80;;;;;;;;;;5029127;28;20020;-73
2022/05/17 04:26:48;;;;;;;2.35;2.03;;;;;;;;;;5030747;28;20321;-77
2022/05/17 04:29:14;;;;;;;1.88;1.75;;;;;;;;;;5035196;28;20132;-75
2022/05/17 04:31:40;;;;;;;2.10;1.90;;;;;;;;;;5040067;28;20052;-73
2022/05/17 04:34:05;;;;;;;2.20;1.98;;;;;;;;;;5041815;28;20063;-71
2022/05/17 04:36:32;;;;;;;2.35;2.15;;;;;;;;;;5041654;28;20440;-75
2022/05/17 04:38:57;;;;;;;2.20;1.83;;;;;;;;;;5041522;28;20444;-71
2022/05/17 04:41:23;;;;;;;4.85;2.45;;;;;;;;;;5042490;28;20047;-77
2022/05/17 04:43:48;;;;;;;2.50;2.30;;;;;;;;;;5036576;28;20025;-74
2022/05/17 04:46:13;;;;;;;2.30;2.10;;;;;;;;;;5033901;28;20464;-72
2022/05/17 04:48:39;;;;;;;3.05;2.40;;;;;;;;;;5026898;28;20077;-72
2022/05/17 04:51:08;;;;;;;3.30;3.00;;;;;;;;;;5027135;28;20040;-71
2022/05/17 04:53:34;;;;;;;2.75;2.55;;;;;;;;;;5025805;28;20041;-75
2022/05/17 04:55:59;;;;;;;2.85;2.08;;;;;;;;;;5026241;28;20037;-71
2022/05/17 04:58:25;;;;;;;2.20;1.80;;;;;;;;;;5025156;28;20033;-71
2022/05/17 05:00:51;;;;;;;1.65;1.55;;;;;;;;;;5027350;28;20051;-71
2022/05/17 05:03:16;;;;;;;2.15;1.75;;;;;;;;;;5027737;28;20128;-73
2022/05/17 05:05:42;;;;;;;1.60;1.50;;;;;;;;;;5027481;28;20139;-72
2022/05/17 05:08:07;;;;;;;1.58;1.48;;;;;;;;;;5026944;28;20163;-70
2022/05/17 05:10:32;;;;;;;1.42;1.33;;;;;;;;;;5030641;28;20403;-71
2022/05/17 05:12:58;;;;;;;1.67;1.23;;;;;;;;;;5033807;28;20036;-74
2022/05/17 05:15:24;;;;;;;2.30;1.55;;;;;;;;;;5036966;28;20793;-74
2022/05/17 05:17:49;;;;;;;2.20;1.60;;;;;;;;;;5037447;28;20497;-73
2022/05/17 05:20:16;;;;;;;2.15;1.75;;;;;;;;;;5038434;28;20052;-70
2022/05/17 05:22:41;;;;;;;3.03;2.03;;;;;;;;;;5027977;28;20021;-72
2022/05/17 05:25:07;;;;;;;1.60;1.50;;;;;;;;;;5026686;28;20028;-72
2022/05/17 05:27:33;;;;;;;1.90;1.60;;;;;;;;;;5028587;28;20059;-70
2022/05/17 05:29:59;;;;;;;1.65;1.55;;;;;;;;;;5036006;28;20033;-72
2022/05/17 05:32:24;;;;;;;1.42;1.33;;;;;;;;;;5031179;28;20033;-70
2022/05/17 05:34:50;;;;;;;1.52;1.42;;;;;;;;;;5030275;28;20020;-69
2022/05/17 05:37:16;;;;;;;2.38;2.17;;;;;;;;;;5031055;28;20025;-76
2022/05/17 05:39:41;;;;;;;1.98;1.77;;;;;;;;;;5031096;28;20048;-69
2022/05/17 05:42:07;;;;;;;2.92;1.90;;;;;;;;;;5026233;28;20599;-71
2022/05/17 05:44:35;;;;;;;2.38;1.60;;;;;;;;;;5026149;28;20115;-72
2022/05/17 05:47:00;;;;;;;2.42;1.90;;;;;;;;;;5034988;28;20034;-75
2022/05/17 05:49:25;;;;;;;1.90;1.70;;;;;;;;;;5038136;28;20101;-74
2022/05/17 05:51:51;;;;;;;2.13;1.63;;;;;;;;;;5035742;28;20125;-73
2022/05/17 05:54:17;;;;;;;1.95;1.60;;;;;;;;;;5030263;28;20029;-74
2022/05/17 05:56:42;;;;;;;1.65;1.40;;;;;;;;;;5035213;28;20112;-70
2022/05/17 05:59:08;;;;;;;1.27;1.23;;;;;;;;;;5036132;28;20037;-71
2022/05/17 06:01:33;;;;;;;3.05;1.90;;;;;;;;;;5052586;28;20049;-71
2022/05/17 06:03:59;;;;;;;1.70;1.60;;;;;;;;;;5037869;28;20029;-70
2022/05/17 06:06:24;;;;;;;1.40;1.30;;;;;;;;;;5036266;28;20484;-70
2022/05/17 06:08:50;;;;;;;1.40;1.30;;;;;;;;;;5035843;28;20067;-70
2022/05/17 06:11:15;;;;;;;1.15;1.08;;;;;;;;;;5038528;28;20029;-70
2022/05/17 06:13:41;;;;;;;1.20;1.10;;;;;;;;;;5036840;28;20033;-71
2022/05/17 06:16:07;;;;;;;1.30;1.20;;;;;;;;;;5033114;28;20435;-71
2022/05/17 06:18:33;;;;;;;1.30;1.20;;;;;;;;;;5033396;28;20028;-70
2022/05/17 06:21:00;;;;;;;1.45;1.35;;;;;;;;;;5039975;28;20033;-71
2022/05/17 06:23:26;;;;;;;2.67;1.30;;;;;;;;;;5032164;28;20123;-72
2022/05/17 06:25:51;;;;;;;2.88;1.52;;;;;;;;;;5029596;28;20130;-71
2022/05/17 06:28:17;;;;;;;2.55;1.40;;;;;;;;;;5036203;28;20112;-69
2022/05/17 06:30:42;;;;;;;1.38;1.27;;;;;;;;;;5037158;28;20051;-73
2022/05/17 06:33:08;;;;;;;1.52;1.42;;;;;;;;;;5037331;28;20086;-70
2022/05/17 06:35:33;;;;;;;1.52;1.42;;;;;;;;;;5038629;28;20025;-70
2022/05/17 06:37:59;;;;;;;1.20;1.10;;;;;;;;;;5036989;28;20068;-70
2022/05/17 06:40:24;;;;;;;1.05;1.02;;;;;;;;;;5037796;28;20017;-72
2022/05/17 06:42:49;;;;;;;1.23;1.13;;;;;;;;;;5037717;28;20056;-73
2022/05/17 06:45:15;;;;;;;1.52;1.42;;;;;;;;;;5038856;28;20090;-70
2022/05/17 06:47:40;;;;;;;1.40;1.30;;;;;;;;;;5038453;28;20471;-69
2022/05/17 06:50:06;;;;;;;1.85;1.33;;;;;;;;;;5037643;28;20033;-69
2022/05/17 06:52:31;;;;;;;1.35;1.20;;;;;;;;;;5037336;28;20017;-70
2022/05/17 06:54:57;;;;;;;1.60;1.30;;;;;;;;;;5037774;28;20436;-71
2022/05/17 06:57:22;;;;;;;2.35;1.77;;;;;;;;;;5038889;28;21065;-72
2022/05/17 06:59:48;;;;;;;1.50;1.20;;;;;;;;;;5037737;28;20017;-70
2022/05/17 07:02:13;;;;;;;1.80;1.70;;;;;;;;;;5039162;28;20158;-70
2022/05/17 07:04:39;;;;;;;1.75;1.35;;;;;;;;;;5038438;28;20102;-73
2022/05/17 07:07:05;;;;;;;1.27;1.17;;;;;;;;;;5037421;28;20017;-72
2022/05/17 07:09:30;;;;;;;1.30;1.17;;;;;;;;;;5039608;28;20033;-71
2022/05/17 07:14:39;;;;;;;1.55;1.00;;;;;;;;;;5037512;28;20474;-72
2022/05/17 07:17:05;;;;;;;1.67;1.27;;;;;;;;;;5037877;28;20064;-69
2022/05/17 07:19:33;;;;;;;1.42;1.33;;;;;;;;;;5039139;28;20075;-69
2022/05/17 07:22:03;;;;;;;1.30;1.10;;;;;;;;;;5037037;28;20017;-76
2022/05/17 07:24:29;;;;;;;1.23;1.13;;;;;;;;;;5039006;28;20052;-69
2022/05/17 07:26:54;;;;;;;2.30;1.30;;;;;;;;;;5036169;28;20045;-71
2022/05/17 07:29:19;;;;;;;1.50;1.13;;;;;;;;;;5037478;28;20051;-71
2022/05/17 07:31:45;;;;;;;1.23;1.13;;;;;;;;;;5037236;28;20669;-76
2022/05/17 07:34:10;;;;;;;1.52;1.42;;;;;;;;;;5037346;28;20033;-72
2022/05/17 07:36:36;;;;;;;2.13;1.23;;;;;;;;;;5038526;28;20090;-72
2022/05/17 07:39:01;;;;;;;1.30;1.20;;;;;;;;;;5036167;28;20033;-74
2022/05/17 07:41:26;;;;;;;1.30;1.20;;;;;;;;;;5035840;28;20021;-71
2022/05/17 07:43:51;;;;;;;1.17;1.08;;;;;;;;;;5038010;28;20032;-70
2022/05/17 07:46:17;;;;;;;1.13;1.05;;;;;;;;;;5038658;28;20071;-71
2022/05/17 07:48:42;;;;;;;1.38;1.20;;;;;;;;;;5037175;28;20048;-71
2022/05/17 07:51:08;;;;;;;1.35;1.10;;;;;;;;;;5037048;28;20057;-70
2022/05/17 07:53:33;;;;;;;0.88;0.88;;;;;;;;;;5036227;28;20078;-71
2022/05/17 07:55:59;;;;;;;1.40;1.30;;;;;;;;;;5037699;28;20040;-75
2022/05/17 07:58:25;;;;;;;1.35;1.10;;;;;;;;;;5038336;28;20064;-76
2022/05/17 08:00:50;;;;;;;1.00;0.82;;;;;;;;;;5037859;28;20045;-72
2022/05/17 08:03:16;;;;;;;2.00;1.17;;;;;;;;;;5040008;28;20387;-70
2022/05/17 08:05:41;;;;;;;1.00;1.00;;;;;;;;;;5039805;28;20029;-73
2022/05/17 08:08:07;;;;;;;1.20;1.10;;;;;;;;;;5040459;28;20033;-70
2022/05/17 08:10:32;;;;;;;1.52;1.13;;;;;;;;;;5042286;28;20090;-71
2022/05/17 08:12:57;;;;;;;1.20;1.10;;;;;;;;;;5041349;28;20520;-71
2022/05/17 08:15:23;;;;;;;1.55;1.17;;;;;;;;;;5042414;28;20459;-71
2022/05/17 08:17:49;;;;;;;1.25;1.08;;;;;;;;;;5041728;28;20427;-71
2022/05/17 08:20:14;;;;;;;1.20;1.10;;;;;;;;;;5038545;28;20033;-73
2022/05/17 08:22:44;;;;;;;1.13;1.02;;;;;;;;;;5039099;28;20444;-71
2022/05/17 08:27:55;;;;;;;0.95;0.80;;;;;;;;;;5041532;28;20459;-70
2022/05/17 08:30:22;;;;;;;0.90;0.90;;;;;;;;;;5040232;28;20021;-72
2022/05/17 08:35:36;;;;;;;1.05;1.00;;;;;;;;;;5041045;28;20044;-74
2022/05/17 08:38:01;;;;;;;2.28;1.20;;;;;;;;;;5039733;28;20075;-70
2022/05/17 08:40:28;;;;;;;1.50;1.20;;;;;;;;;;5040947;28;20056;-71
2022/05/17 08:43:01;;;;;;;1.20;1.10;;;;;;;;;;5039140;28;20028;-76
2022/05/17 08:45:37;;;;;;;1.23;1.13;;;;;;;;;;5040915;28;20810;-71
2022/05/17 08:48:04;;;;;;;1.27;1.02;;;;;;;;;;5040444;28;20039;-71
2022/05/17 08:50:33;;;;;;;1.98;1.40;;;;;;;;;;5040562;28;20351;-73
2022/05/17 08:52:58;;;;;;;2.65;1.30;;;;;;;;;;5039987;28;20064;-72
2022/05/17 08:55:26;;;;;;;0.95;0.95;;;;;;;;;;5038913;28;20025;-71
2022/05/17 08:57:54;;;;;;;2.13;1.10;;;;;;;;;;5040855;28;20360;-72
2022/05/17 09:00:22;;;;;;;1.42;1.10;;;;;;;;;;5041806;28;20064;-74
2022/05/17 09:02:47;;;;;;;1.48;1.20;;;;;;;;;;5040414;28;20057;-72
2022/05/17 09:05:19;;;;;;;1.17;0.97;;;;;;;;;;5040756;28;20347;-72
2022/05/17 09:07:53;;;;;;;2.50;1.20;;;;;;;;;;5040474;28;20301;-71
2022/05/17 09:10:32;;;;;;;1.13;1.02;;;;;;;;;;5039464;28;20060;-71
2022/05/17 09:12:58;;;;;;;1.27;1.17;;;;;;;;;;5038200;28;20048;-73
2022/05/17 09:15:23;;;;;;;0.93;0.90;;;;;;;;;;5038135;28;21315;-72
2022/05/17 09:17:48;;;;;;;1.20;1.10;;;;;;;;;;5038321;28;20256;-72
2022/05/17 09:20:16;;;;;;;1.30;1.20;;;;;;;;;;5039552;28;20078;-77
2022/05/17 09:22:41;;;;;;;2.08;1.27;;;;;;;;;;5040009;28;20021;-74
2022/05/17 09:25:22;;;;;;;1.48;0.90;;;;;;;;;;5041776;28;20029;-75
2022/05/17 09:27:49;;;;;;;0.88;0.88;;;;;;;;;;5040229;28;20090;-71
2022/05/17 09:30:21;;;;;;;2.13;1.00;;;;;;;;;;5040133;28;20036;-75
2022/05/17 09:32:46;;;;;;;1.48;1.00;;;;;;;;;;5038675;28;20448;-74
2022/05/17 09:35:15;;;;;;;0.95;0.85;;;;;;;;;;5038284;28;20039;-74
2022/05/17 09:37:43;;;;;;;0.98;0.90;;;;;;;;;;5039203;28;20115;-76
2022/05/17 09:40:10;;;;;;;1.45;0.73;;;;;;;;;;5038621;28;20035;-76
2022/05/17 09:42:42;;;;;;;2.05;0.95;;;;;;;;;;5040122;28;20024;-72
2022/05/17 09:45:12;;;;;;;1.42;0.90;;;;;;;;;;5040058;28;20064;-72
2022/05/17 09:47:57;;;;;;;1.35;0.80;;;;;;;;;;5040200;28;20108;-72
2022/05/17 09:53:14;;;;;;;1.50;1.08;;;;;;;;;;5038548;28;20112;-73
2022/05/17 09:55:43;;;;;;;1.67;1.10;;;;;;;;;;5039396;28;20127;-71
2022/05/17 09:58:11;;;;;;;1.55;1.30;;;;;;;;;;5039686;28;20021;-74
2022/05/17 10:00:43;;;;;;;1.35;1.00;;;;;;;;;;5037190;28;20144;-71
2022/05/17 10:03:15;;;;;;;1.52;0.80;;;;;;;;;;5038029;28;20078;-75
2022/05/17 10:05:40;;;;;;;1.45;1.13;;;;;;;;;;5039131;28;20434;-71
2022/05/17 10:08:25;;;;;;;1.80;1.20;;;;;;;;;;5039904;28;20083;-76
2022/05/17 10:11:09;;;;;;;3.17;1.15;;;;;;;;;;5039827;28;20035;-71
2022/05/17 10:13:51;;;;;;;1.15;1.05;;;;;;;;;;5040366;28;20021;-73
2022/05/17 10:16:24;;;;;;;1.10;1.00;;;;;;;;;;5038318;28;20033;-71
2022/05/17 10:19:10;;;;;;;1.08;0.93;;;;;;;;;;5038226;28;20127;-71
2022/05/17 10:21:43;;;;;;;1.40;1.20;;;;;;;;;;5040721;28;20086;-72
2022/05/17 10:24:14;;;;;;;1.30;1.17;;;;;;;;;;5038063;28;20067;-72
2022/05/17 10:26:42;;;;;;;0.98;0.95;;;;;;;;;;5037887;28;20014;-77
2022/05/17 10:29:14;;;;;;;2.17;1.30;;;;;;;;;;5039183;28;20104;-73
2022/05/17 10:31:53;;;;;;;1.50;1.15;;;;;;;;;;5040904;28;20254;-72
2022/05/17 10:34:21;;;;;;;2.30;0.93;;;;;;;;;;5035936;28;20017;-73
2022/05/17 10:36:49;;;;;;;1.60;1.05;;;;;;;;;;5037298;28;20025;-71
2022/05/17 10:39:30;;;;;;;1.27;1.17;;;;;;;;;;5038865;28;20033;-72
2022/05/17 10:41:56;;;;;;;1.98;1.20;;;;;;;;;;5037631;28;20032;-71
2022/05/17 10:44:22;;;;;;;1.20;1.10;;;;;;;;;;5038101;28;20025;-71
2022/05/17 10:46:50;;;;;;;1.08;1.02;;;;;;;;;;5037543;28;20345;-78
2022/05/17 10:49:16;;;;;;;2.30;2.10;;;;;;;;;;5038389;28;20025;-71
2022/05/17 10:51:56;;;;;;;4.30;2.03;;;;;;;;;;5036381;28;20025;-72
2022/05/17 10:54:41;;;;;;;1.25;1.17;;;;;;;;;;5039636;28;20021;-74
2022/05/17 10:57:24;;;;;;;1.33;1.25;;;;;;;;;;5039487;28;20086;-73
2022/05/17 11:00:02;;;;;;;2.20;1.55;;;;;;;;;;5039581;28;20029;-71
2022/05/17 11:02:45;;;;;;;1.92;1.73;;;;;;;;;;5039412;28;20071;-73
2022/05/17 11:05:12;;;;;;;1.98;1.63;;;;;;;;;;5038957;28;20066;-72
2022/05/17 11:07:53;;;;;;;1.50;1.38;;;;;;;;;;5039085;28;20094;-74
2022/05/17 11:10:27;;;;;;;2.20;1.75;;;;;;;;;;5036968;28;20031;-72
2022/05/17 11:12:55;;;;;;;1.50;1.40;;;;;;;;;;5038170;28;20048;-72
2022/05/17 11:15:27;;;;;;;1.50;1.30;;;;;;;;;;5037472;28;20474;-72
2022/05/17 11:17:55;;;;;;;2.70;1.80;;;;;;;;;;5032598;28;20254;-75
2022/05/17 11:20:39;;;;;;;1.85;1.70;;;;;;;;;;5034064;28;20033;-71
2022/05/17 11:23:05;;;;;;;1.45;1.17;;;;;;;;;;5037908;28;20174;-72
2022/05/17 11:25:49;;;;;;;1.00;0.90;;;;;;;;;;5038086;28;20158;-75
2022/05/17 11:28:23;;;;;;;1.33;1.02;;;;;;;;;;5038189;28;20284;-72
2022/05/17 11:30:49;;;;;;;1.10;1.00;;;;;;;;;;5036995;28;20028;-71
2022/05/17 11:33:24;;;;;;;0.98;0.93;;;;;;;;;;5036722;28;20425;-75
2022/05/17 11:35:50;;;;;;;1.42;1.17;;;;;;;;;;5037677;28;20017;-72
2022/05/17 11:38:36;;;;;;;1.27;1.08;;;;;;;;;;5041178;28;20460;-72
2022/05/17 11:41:14;;;;;;;1.23;1.10;;;;;;;;;;5040495;28;20036;-73
2022/05/17 11:43:45;;;;;;;1.40;1.05;;;;;;;;;;5042920;28;20036;-71
2022/05/17 11:46:33;;;;;;;1.20;1.10;;;;;;;;;;5042191;28;20041;-72
2022/05/17 11:49:17;;;;;;;0.90;0.90;;;;;;;;;;5041626;28;20355;-72
2022/05/17 11:51:58;;;;;;;1.08;0.80;;;;;;;;;;5042105;28;20052;-73
2022/05/17 11:54:42;;;;;;;1.33;1.08;;;;;;;;;;5040204;28;20040;-78
2022/05/17 11:57:30;;;;;;;1.80;1.23;;;;;;;;;;5043137;28;20017;-77
2022/05/17 11:59:56;;;;;;;;;;;;;;;;;;5047680;28;20048;-74
2022/05/17 12:02:39;;;;;;;1.40;1.27;;;;;;;;;;5041850;28;20209;-72
2022/05/17 12:05:06;;;;;;;1.15;1.02;;;;;;;;;;5042560;28;20424;-71
2022/05/17 12:07:31;;;;;;;1.25;1.15;;;;;;;;;;5042092;28;20028;-73
2022/05/17 12:10:08;;;;;;;1.92;1.20;;;;;;;;;;5041046;28;20041;-71
2022/05/17 12:12:52;;;;;;;1.30;1.20;;;;;;;;;;5040280;28;20032;-72
2022/05/17 12:15:38;;;;;;;2.05;1.40;;;;;;;;;;5040285;28;20017;-71
2022/05/17 12:18:08;;;;;;;1.50;1.20;;;;;;;;;;5041895;28;20032;-73
2022/05/17 12:20:38;;;;;;;2.30;1.30;;;;;;;;;;5040867;28;20028;-74
2022/05/17 12:23:08;;;;;;;1.10;1.00;;;;;;;;;;5041903;28;20406;-72
2022/05/17 12:25:34;;;;;;;1.17;1.08;;;;;;;;;;5038665;28;20386;-71
2022/05/17 12:27:59;;;;;;;1.88;1.17;;;;;;;;;;5040789;28;20028;-75
2022/05/17 12:33:16;;;;;;;2.05;1.30;;;;;;;;;;5041192;28;20040;-73
2022/05/17 12:35:42;;;;;;;1.52;0.98;;;;;;;;;;5041061;28;20032;-72
2022/05/17 12:43:35;;;;;;;1.92;1.23;;;;;;;;;;5039944;28;20094;-72
2022/05/17 12:46:11;;;;;;;1.23;1.00;;;;;;;;;;5040373;28;20021;-73
2022/05/17 12:48:37;;;;;;;1.17;1.00;;;;;;;;;;5041026;28;20406;-72
2022/05/17 12:51:05;;;;;;;1.55;1.30;;;;;;;;;;5040936;28;20078;-75
2022/05/17 12:53:37;;;;;;;1.40;1.30;;;;;;;;;;5039610;28;20048;-71
2022/05/17 12:56:02;;;;;;;1.00;0.90;;;;;;;;;;5040457;28;20134;-72
2022/05/17 12:58:28;;;;;;;1.40;1.25;;;;;;;;;;5038221;28;20059;-74
2022/05/17 13:00:54;;;;;;;1.33;1.23;;;;;;;;;;5037520;28;20610;-74
2022/05/17 13:03:21;;;;;;;1.45;1.30;;;;;;;;;;5040092;28;20026;-73
2022/05/17 13:05:49;;;;;;;2.83;1.73;;;;;;;;;;5039539;28;20040;-73
2022/05/17 13:08:18;;;;;;;1.70;1.60;;;;;;;;;;5040977;28;20029;-75
2022/05/17 13:10:43;;;;;;;;;;;;;;;;;;5040329;28;20045;-72
2022/05/17 13:13:27;;;;;;;1.77;1.40;;;;;;;;;;5041941;28;19999;-74
2022/05/17 13:15:54;;;;;;;1.35;1.10;;;;;;;;;;5033441;28;20033;-76
2022/05/17 13:18:20;;;;;;;1.40;1.30;;;;;;;;;;5028279;28;20029;-71
2022/05/17 13:20:48;;;;;;;1.40;1.23;;;;;;;;;;5037977;28;20368;-70
2022/05/17 13:23:14;;;;;;;1.98;1.30;;;;;;;;;;5038095;28;20029;-72
2022/05/17 13:25:41;;;;;;;1.58;1.42;;;;;;;;;;5028443;28;20024;-70
2022/05/17 13:28:07;;;;;;;1.52;1.25;;;;;;;;;;5028778;28;20021;-71
2022/05/17 13:30:37;;;;;;;1.08;1.02;;;;;;;;;;5027634;28;20035;-79
2022/05/17 13:33:11;;;;;;;1.85;1.75;;;;;;;;;;5038022;28;20036;-70
2022/05/17 13:35:38;;;;;;;1.55;1.25;;;;;;;;;;4999651;28;20082;-72
2022/05/17 13:38:12;;;;;;;1.98;1.48;;;;;;;;;;4946372;28;20361;-71
2022/05/17 13:40:44;;;;;;;1.27;1.17;;;;;;;;;;4948726;28;20023;-71
2022/05/17 13:43:34;;;;;;;1.50;1.27;;;;;;;;;;4958583;28;20026;-71
2022/05/17 13:46:13;;;;;;;1.00;1.00;;;;;;;;;;4957292;28;20343;-71
2022/05/17 13:48:53;;;;;;;1.35;1.20;;;;;;;;;;4955076;28;20411;-75
2022/05/17 13:51:24;;;;;;;1.65;1.35;;;;;;;;;;4959123;28;20464;-75
2022/05/17 13:54:19;;;;;;;2.75;1.52;;;;;;;;;;4959332;28;20058;-74
2022/05/17 13:56:55;;;;;;;1.52;1.40;;;;;;;;;;4949621;28;20045;-73
2022/05/17 13:59:21;;;;;;;2.00;1.33;;;;;;;;;;4949412;28;20031;-74
2022/05/17 14:01:52;;;;;;;1.55;1.45;;;;;;;;;;4943728;28;20058;-70
2022/05/17 14:04:35;;;;;;;1.30;1.20;;;;;;;;;;4946996;28;20045;-76
2022/05/17 14:07:02;;;;;;;1.50;1.40;;;;;;;;;;4945743;28;20362;-73
2022/05/17 14:12:17;;;;;;;1.33;1.23;;;;;;;;;;4957456;28;20361;-69
2022/05/17 14:14:44;;;;;;;1.20;1.05;;;;;;;;;;4971813;28;20039;-68
2022/05/17 14:17:23;;;;;;;2.03;1.30;;;;;;;;;;4955275;28;20031;-75
2022/05/17 14:19:53;;;;;;;1.40;1.30;;;;;;;;;;4956989;28;20078;-70
2022/05/17 14:22:19;;;;;;;2.47;1.30;;;;;;;;;;4955890;28;20031;-73
2022/05/17 14:24:44;;;;;;;1.73;1.23;;;;;;;;;;4956478;28;20046;-70
2022/05/17 14:27:10;;;;;;;1.20;1.10;;;;;;;;;;4955884;28;20073;-70
2022/05/17 14:29:37;;;;;;;2.13;1.30;;;;;;;;;;4949427;28;20273;-71
2022/05/17 14:32:03;;;;;;;1.73;1.63;;;;;;;;;;4954095;28;20027;-78
2022/05/17 14:34:29;;;;;;;2.72;1.80;;;;;;;;;;4955499;28;20033;-75
2022/05/17 14:36:55;;;;;;;1.83;1.70;;;;;;;;;;4955572;28;20039;-70
2022/05/17 14:39:20;;;;;;;1.77;1.40;;;;;;;;;;4956843;28;20038;-71
2022/05/17 14:41:48;;;;;;;1.85;1.73;;;;;;;;;;4956640;28;20369;-69
2022/05/17 14:44:14;;;;;;;1.58;1.42;;;;;;;;;;4956164;28;20096;-74
2022/05/17 14:46:40;;;;;;;1.25;1.15;;;;;;;;;;4956660;28;20389;-70
2022/05/17 14:49:06;;;;;;;1.50;1.40;;;;;;;;;;4957289;28;20110;-70
2022/05/17 14:51:32;;;;;;;2.13;1.83;;;;;;;;;;4956974;28;20551;-69
2022/05/17 14:53:57;;;;;;;2.88;1.80;;;;;;;;;;4956690;28;20022;-70
2022/05/17 14:56:23;;;;;;;2.28;2.08;;;;;;;;;;4956106;28;20026;-72
2022/05/17 14:58:48;;;;;;;2.03;1.83;;;;;;;;;;4955725;28;20034;-70
2022/05/17 15:01:18;;;;;;;2.42;1.90;;;;;;;;;;4953765;28;20051;-70
2022/05/17 15:03:45;;;;;;;2.75;1.70;;;;;;;;;;4945931;28;20041;-72
2022/05/17 15:06:11;;;;;;;2.55;1.95;;;;;;;;;;4948245;28;20454;-70
2022/05/17 15:08:37;;;;;;;1.73;1.55;;;;;;;;;;4946513;28;20051;-72
2022/05/17 15:11:03;;;;;;;3.55;1.90;;;;;;;;;;4944829;28;20431;-70
2022/05/17 15:13:28;;;;;;;2.13;1.92;;;;;;;;;;4944601;28;20102;-75